sensor_id;sensor_type;location;lat;lon;timestamp;temperature;humidity
51579;DHT22;47998;53.242;6.386;2022-11-14T00:00:23;6.20;99.90
51579;DHT22;47998;53.242;6.386;2022-11-14T00:02:49;6.10;99.90
51579;DHT22;47998;53.242;6.386;2022-11-14T00:05:15;6.20;99.90
51579;DHT22;47998;53.242;6.386;2022-11-14T00:07:40;6.20;99.90
51579;DHT22;47998;53.242;6.386;2022-11-14T00:10:06;6.20;99.90
51579;DHT22;47998;53.242;6.386;2022-11-14T00:12:32;6.20;99.90
51579;DHT22;47998;53.242;6.386;2022-11-14T00:14:58;6.20;99.90
51579;DHT22;47998;53.242;6.386;2022-11-14T00:17:24;6.30;99.90
51579;DHT22;47998;53.242;6.386;2022-11-14T00:19:50;6.30;99.90
51579;DHT22;47998;53.242;6.386;2022-11-14T00:22:15;6.30;99.90
51579;DHT22;47998;53.242;6.386;2022-11-14T00:24:41;6.30;99.90
51579;DHT22;47998;53.242;6.386;2022-11-14T00:27:07;6.30;99.90
51579;DHT22;47998;53.242;6.386;2022-11-14T00:29:33;6.30;99.90
51579;DHT22;47998;53.242;6.386;2022-11-14T00:31:58;6.40;99.90
51579;DHT22;47998;53.242;6.386;2022-11-14T00:34:24;6.30;99.90
51579;DHT22;47998;53.242;6.386;2022-11-14T00:36:50;6.40;99.90
51579;DHT22;47998;53.242;6.386;2022-11-14T00:39:15;6.30;99.90
51579;DHT22;47998;53.242;6.386;2022-11-14T00:41:41;6.40;99.90
51579;DHT22;47998;53.242;6.386;2022-11-14T00:44:07;6.40;99.90
51579;DHT22;47998;53.242;6.386;2022-11-14T00:46:33;6.40;99.90
51579;DHT22;47998;53.242;6.386;2022-11-14T00:48:59;6.40;99.90
51579;DHT22;47998;53.242;6.386;2022-11-14T00:51:25;6.50;99.90
51579;DHT22;47998;53.242;6.386;2022-11-14T00:53:51;6.50;99.90
51579;DHT22;47998;53.242;6.386;2022-11-14T00:56:17;6.50;99.90
51579;DHT22;47998;53.242;6.386;2022-11-14T00:58:42;7.00;99.90
51579;DHT22;47998;53.242;6.386;2022-11-14T01:01:08;6.50;99.90
51579;DHT22;47998;53.242;6.386;2022-11-14T01:03:34;6.50;99.90
51579;DHT22;47998;53.242;6.386;2022-11-14T01:06:04;6.50;99.90
51579;DHT22;47998;53.242;6.386;2022-11-14T01:08:31;6.50;99.90
51579;DHT22;47998;53.242;6.386;2022-11-14T01:10:56;6.60;99.90
51579;DHT22;47998;53.242;6.386;2022-11-14T01:13:23;6.50;99.90
51579;DHT22;47998;53.242;6.386;2022-11-14T01:15:49;6.50;99.90
51579;DHT22;47998;53.242;6.386;2022-11-14T01:18:19;6.50;99.90
51579;DHT22;47998;53.242;6.386;2022-11-14T01:20:46;6.50;99.90
51579;DHT22;47998;53.242;6.386;2022-11-14T01:23:14;6.50;99.90
51579;DHT22;47998;53.242;6.386;2022-11-14T01:25:41;6.50;99.90
51579;DHT22;47998;53.242;6.386;2022-11-14T01:28:18;6.50;99.90
51579;DHT22;47998;53.242;6.386;2022-11-14T01:30:44;6.50;99.90
51579;DHT22;47998;53.242;6.386;2022-11-14T01:33:10;6.50;99.90
51579;DHT22;47998;53.242;6.386;2022-11-14T01:35:37;6.50;99.90
51579;DHT22;47998;53.242;6.386;2022-11-14T01:38:04;6.50;99.90
51579;DHT22;47998;53.242;6.386;2022-11-14T01:40:31;6.50;99.90
51579;DHT22;47998;53.242;6.386;2022-11-14T01:46:03;6.50;99.90
51579;DHT22;47998;53.242;6.386;2022-11-14T01:48:40;6.50;99.90
51579;DHT22;47998;53.242;6.386;2022-11-14T01:51:16;6.50;99.90
51579;DHT22;47998;53.242;6.386;2022-11-14T01:53:45;6.40;99.90
51579;DHT22;47998;53.242;6.386;2022-11-14T01:56:15;6.40;99.90
51579;DHT22;47998;53.242;6.386;2022-11-14T01:58:44;6.30;99.90
51579;DHT22;47998;53.242;6.386;2022-11-14T02:01:11;6.30;99.90
51579;DHT22;47998;53.242;6.386;2022-11-14T02:03:38;6.20;99.90
51579;DHT22;47998;53.242;6.386;2022-11-14T02:06:06;6.30;99.90
51579;DHT22;47998;53.242;6.386;2022-11-14T02:08:34;6.20;99.90
51579;DHT22;47998;53.242;6.386;2022-11-14T02:11:01;6.20;99.90
51579;DHT22;47998;53.242;6.386;2022-11-14T02:13:26;6.10;99.90
51579;DHT22;47998;53.242;6.386;2022-11-14T02:15:53;6.00;99.90
51579;DHT22;47998;53.242;6.386;2022-11-14T02:18:18;6.00;99.90
51579;DHT22;47998;53.242;6.386;2022-11-14T02:20:44;6.00;99.90
51579;DHT22;47998;53.242;6.386;2022-11-14T02:23:10;6.00;99.90
51579;DHT22;47998;53.242;6.386;2022-11-14T02:25:37;6.00;99.90
51579;DHT22;47998;53.242;6.386;2022-11-14T02:28:06;6.10;99.90
51579;DHT22;47998;53.242;6.386;2022-11-14T02:30:33;6.00;99.90
51579;DHT22;47998;53.242;6.386;2022-11-14T02:32:59;6.00;99.90
51579;DHT22;47998;53.242;6.386;2022-11-14T02:35:25;6.00;99.90
51579;DHT22;47998;53.242;6.386;2022-11-14T02:37:50;6.00;99.90
51579;DHT22;47998;53.242;6.386;2022-11-14T02:40:16;5.90;99.90
51579;DHT22;47998;53.242;6.386;2022-11-14T02:42:42;5.90;99.90
51579;DHT22;47998;53.242;6.386;2022-11-14T02:45:09;5.80;99.90
51579;DHT22;47998;53.242;6.386;2022-11-14T02:47:35;5.80;99.90
51579;DHT22;47998;53.242;6.386;2022-11-14T02:50:01;5.80;99.90
51579;DHT22;47998;53.242;6.386;2022-11-14T02:52:27;5.80;99.90
51579;DHT22;47998;53.242;6.386;2022-11-14T02:54:52;5.90;99.90
51579;DHT22;47998;53.242;6.386;2022-11-14T02:57:18;5.80;99.90
51579;DHT22;47998;53.242;6.386;2022-11-14T02:59:44;5.80;99.90
51579;DHT22;47998;53.242;6.386;2022-11-14T03:02:09;5.80;99.90
51579;DHT22;47998;53.242;6.386;2022-11-14T03:04:35;5.80;99.90
51579;DHT22;47998;53.242;6.386;2022-11-14T03:07:00;5.90;99.90
51579;DHT22;47998;53.242;6.386;2022-11-14T03:09:26;6.00;99.90
51579;DHT22;47998;53.242;6.386;2022-11-14T03:11:52;6.00;99.90
51579;DHT22;47998;53.242;6.386;2022-11-14T03:14:18;6.00;99.90
51579;DHT22;47998;53.242;6.386;2022-11-14T03:16:43;6.10;99.90
51579;DHT22;47998;53.242;6.386;2022-11-14T03:19:09;6.10;99.90
51579;DHT22;47998;53.242;6.386;2022-11-14T03:21:35;6.20;99.90
51579;DHT22;47998;53.242;6.386;2022-11-14T03:24:00;6.20;99.90
51579;DHT22;47998;53.242;6.386;2022-11-14T03:26:26;6.20;99.90
51579;DHT22;47998;53.242;6.386;2022-11-14T03:28:52;6.30;99.90
51579;DHT22;47998;53.242;6.386;2022-11-14T03:31:19;6.30;99.90
51579;DHT22;47998;53.242;6.386;2022-11-14T03:33:45;6.30;99.90
51579;DHT22;47998;53.242;6.386;2022-11-14T03:36:11;6.30;99.90
51579;DHT22;47998;53.242;6.386;2022-11-14T03:38:36;6.30;99.90
51579;DHT22;47998;53.242;6.386;2022-11-14T03:41:02;6.30;99.90
51579;DHT22;47998;53.242;6.386;2022-11-14T03:43:32;6.30;99.90
51579;DHT22;47998;53.242;6.386;2022-11-14T03:46:00;6.30;99.90
51579;DHT22;47998;53.242;6.386;2022-11-14T03:48:27;6.30;99.90
51579;DHT22;47998;53.242;6.386;2022-11-14T03:50:54;6.30;99.90
51579;DHT22;47998;53.242;6.386;2022-11-14T03:53:20;6.40;99.90
51579;DHT22;47998;53.242;6.386;2022-11-14T03:55:45;6.40;99.90
51579;DHT22;47998;53.242;6.386;2022-11-14T03:58:11;6.30;99.90
51579;DHT22;47998;53.242;6.386;2022-11-14T04:00:38;6.50;99.90
51579;DHT22;47998;53.242;6.386;2022-11-14T04:03:03;6.50;99.90
51579;DHT22;47998;53.242;6.386;2022-11-14T04:05:29;6.50;99.90
51579;DHT22;47998;53.242;6.386;2022-11-14T04:07:55;6.50;99.90
51579;DHT22;47998;53.242;6.386;2022-11-14T04:10:21;6.40;99.90
51579;DHT22;47998;53.242;6.386;2022-11-14T04:12:55;6.60;99.90
51579;DHT22;47998;53.242;6.386;2022-11-14T04:15:21;6.50;99.90
51579;DHT22;47998;53.242;6.386;2022-11-14T04:17:46;6.50;99.90
51579;DHT22;47998;53.242;6.386;2022-11-14T04:20:13;6.50;99.90
51579;DHT22;47998;53.242;6.386;2022-11-14T04:22:39;6.50;99.90
51579;DHT22;47998;53.242;6.386;2022-11-14T04:25:05;6.50;99.90
51579;DHT22;47998;53.242;6.386;2022-11-14T04:27:31;6.50;99.90
51579;DHT22;47998;53.242;6.386;2022-11-14T04:29:57;6.50;99.90
51579;DHT22;47998;53.242;6.386;2022-11-14T04:32:23;6.50;99.90
51579;DHT22;47998;53.242;6.386;2022-11-14T04:34:48;6.50;99.90
51579;DHT22;47998;53.242;6.386;2022-11-14T04:37:14;6.40;99.90
51579;DHT22;47998;53.242;6.386;2022-11-14T04:39:40;6.40;99.90
51579;DHT22;47998;53.242;6.386;2022-11-14T04:42:05;6.40;99.90
51579;DHT22;47998;53.242;6.386;2022-11-14T04:44:31;6.40;99.90
51579;DHT22;47998;53.242;6.386;2022-11-14T04:46:57;6.40;99.90
51579;DHT22;47998;53.242;6.386;2022-11-14T04:49:22;6.30;99.90
51579;DHT22;47998;53.242;6.386;2022-11-14T04:51:49;6.40;99.90
51579;DHT22;47998;53.242;6.386;2022-11-14T04:54:14;6.30;99.90
51579;DHT22;47998;53.242;6.386;2022-11-14T04:56:40;6.30;99.90
51579;DHT22;47998;53.242;6.386;2022-11-14T04:59:06;6.30;99.90
51579;DHT22;47998;53.242;6.386;2022-11-14T05:01:32;6.40;99.90
51579;DHT22;47998;53.242;6.386;2022-11-14T05:03:57;6.30;99.90
51579;DHT22;47998;53.242;6.386;2022-11-14T05:06:23;6.30;99.90
51579;DHT22;47998;53.242;6.386;2022-11-14T05:08:49;6.30;99.90
51579;DHT22;47998;53.242;6.386;2022-11-14T05:11:15;6.30;99.90
51579;DHT22;47998;53.242;6.386;2022-11-14T05:13:42;6.30;99.90
51579;DHT22;47998;53.242;6.386;2022-11-14T05:16:07;6.30;99.90
51579;DHT22;47998;53.242;6.386;2022-11-14T05:18:33;6.30;99.90
51579;DHT22;47998;53.242;6.386;2022-11-14T05:21:00;6.30;99.90
51579;DHT22;47998;53.242;6.386;2022-11-14T05:23:26;6.30;99.90
51579;DHT22;47998;53.242;6.386;2022-11-14T05:26:00;6.30;99.90
51579;DHT22;47998;53.242;6.386;2022-11-14T05:28:25;6.30;99.90
51579;DHT22;47998;53.242;6.386;2022-11-14T05:30:51;6.30;99.90
51579;DHT22;47998;53.242;6.386;2022-11-14T05:33:17;6.30;99.90
51579;DHT22;47998;53.242;6.386;2022-11-14T05:35:42;6.30;99.90
51579;DHT22;47998;53.242;6.386;2022-11-14T05:38:08;6.30;99.90
51579;DHT22;47998;53.242;6.386;2022-11-14T05:40:33;6.30;99.90
51579;DHT22;47998;53.242;6.386;2022-11-14T05:42:59;6.20;99.90
51579;DHT22;47998;53.242;6.386;2022-11-14T05:45:25;6.20;99.90
51579;DHT22;47998;53.242;6.386;2022-11-14T05:47:51;6.20;99.90
51579;DHT22;47998;53.242;6.386;2022-11-14T05:50:18;6.20;99.90
51579;DHT22;47998;53.242;6.386;2022-11-14T05:52:44;6.20;99.90
51579;DHT22;47998;53.242;6.386;2022-11-14T05:55:10;6.20;99.90
51579;DHT22;47998;53.242;6.386;2022-11-14T05:57:35;6.10;99.90
51579;DHT22;47998;53.242;6.386;2022-11-14T06:00:03;6.10;99.90
51579;DHT22;47998;53.242;6.386;2022-11-14T06:02:29;6.00;99.90
51579;DHT22;47998;53.242;6.386;2022-11-14T06:04:54;6.00;99.90
51579;DHT22;47998;53.242;6.386;2022-11-14T06:07:20;6.00;99.90
51579;DHT22;47998;53.242;6.386;2022-11-14T06:09:46;6.00;99.90
51579;DHT22;47998;53.242;6.386;2022-11-14T06:12:12;6.00;99.90
51579;DHT22;47998;53.242;6.386;2022-11-14T06:14:37;6.00;99.90
51579;DHT22;47998;53.242;6.386;2022-11-14T06:17:03;6.00;99.90
51579;DHT22;47998;53.242;6.386;2022-11-14T06:19:29;6.00;99.90
51579;DHT22;47998;53.242;6.386;2022-11-14T06:21:54;5.90;99.90
51579;DHT22;47998;53.242;6.386;2022-11-14T06:24:20;6.10;99.90
51579;DHT22;47998;53.242;6.386;2022-11-14T06:26:45;6.00;99.90
51579;DHT22;47998;53.242;6.386;2022-11-14T06:29:11;6.10;99.90
51579;DHT22;47998;53.242;6.386;2022-11-14T06:31:37;6.00;99.90
51579;DHT22;47998;53.242;6.386;2022-11-14T06:34:04;6.00;99.90
51579;DHT22;47998;53.242;6.386;2022-11-14T06:36:30;6.00;99.90
51579;DHT22;47998;53.242;6.386;2022-11-14T06:38:56;6.00;99.90
51579;DHT22;47998;53.242;6.386;2022-11-14T06:41:22;6.10;99.90
51579;DHT22;47998;53.242;6.386;2022-11-14T06:43:49;6.10;99.90
51579;DHT22;47998;53.242;6.386;2022-11-14T06:46:19;6.00;99.90
51579;DHT22;47998;53.242;6.386;2022-11-14T06:48:45;6.00;99.90
51579;DHT22;47998;53.242;6.386;2022-11-14T06:51:13;6.00;99.90
51579;DHT22;47998;53.242;6.386;2022-11-14T06:53:40;6.00;99.90
51579;DHT22;47998;53.242;6.386;2022-11-14T06:56:14;5.90;99.90
51579;DHT22;47998;53.242;6.386;2022-11-14T06:58:45;5.90;99.90
51579;DHT22;47998;53.242;6.386;2022-11-14T07:01:21;5.90;99.90
51579;DHT22;47998;53.242;6.386;2022-11-14T07:03:48;5.90;99.90
51579;DHT22;47998;53.242;6.386;2022-11-14T07:06:16;5.90;99.90
51579;DHT22;47998;53.242;6.386;2022-11-14T07:08:42;6.00;99.90
51579;DHT22;47998;53.242;6.386;2022-11-14T07:11:27;5.90;99.90
51579;DHT22;47998;53.242;6.386;2022-11-14T07:14:01;5.90;99.90
51579;DHT22;47998;53.242;6.386;2022-11-14T07:16:32;5.90;99.90
51579;DHT22;47998;53.242;6.386;2022-11-14T07:19:00;5.90;99.90
51579;DHT22;47998;53.242;6.386;2022-11-14T07:21:28;5.80;99.90
51579;DHT22;47998;53.242;6.386;2022-11-14T07:23:55;5.90;99.90
51579;DHT22;47998;53.242;6.386;2022-11-14T07:26:21;5.90;99.90
51579;DHT22;47998;53.242;6.386;2022-11-14T07:28:47;5.80;99.90
51579;DHT22;47998;53.242;6.386;2022-11-14T07:31:16;5.70;99.90
51579;DHT22;47998;53.242;6.386;2022-11-14T07:33:43;5.80;99.90
51579;DHT22;47998;53.242;6.386;2022-11-14T07:36:11;5.90;99.90
51579;DHT22;47998;53.242;6.386;2022-11-14T07:38:37;5.90;99.90
51579;DHT22;47998;53.242;6.386;2022-11-14T07:41:06;6.00;99.90
51579;DHT22;47998;53.242;6.386;2022-11-14T07:43:31;5.80;99.90
51579;DHT22;47998;53.242;6.386;2022-11-14T07:46:01;5.90;99.90
51579;DHT22;47998;53.242;6.386;2022-11-14T07:48:28;5.80;99.90
51579;DHT22;47998;53.242;6.386;2022-11-14T07:51:00;5.80;99.90
51579;DHT22;47998;53.242;6.386;2022-11-14T07:53:27;5.80;99.90
51579;DHT22;47998;53.242;6.386;2022-11-14T07:55:54;5.80;99.90
51579;DHT22;47998;53.242;6.386;2022-11-14T07:58:20;5.80;99.90
51579;DHT22;47998;53.242;6.386;2022-11-14T08:00:45;5.80;99.90
51579;DHT22;47998;53.242;6.386;2022-11-14T08:03:11;5.80;99.90
51579;DHT22;47998;53.242;6.386;2022-11-14T08:05:37;5.80;99.90
51579;DHT22;47998;53.242;6.386;2022-11-14T08:08:03;5.80;99.90
51579;DHT22;47998;53.242;6.386;2022-11-14T08:10:29;5.80;99.90
51579;DHT22;47998;53.242;6.386;2022-11-14T08:13:02;5.80;99.90
51579;DHT22;47998;53.242;6.386;2022-11-14T08:15:28;5.80;99.90
51579;DHT22;47998;53.242;6.386;2022-11-14T08:17:58;5.80;99.90
51579;DHT22;47998;53.242;6.386;2022-11-14T08:20:25;5.80;99.90
51579;DHT22;47998;53.242;6.386;2022-11-14T08:22:52;5.80;99.90
51579;DHT22;47998;53.242;6.386;2022-11-14T08:25:18;5.80;99.90
51579;DHT22;47998;53.242;6.386;2022-11-14T08:27:43;5.90;99.90
51579;DHT22;47998;53.242;6.386;2022-11-14T08:30:10;5.90;99.90
51579;DHT22;47998;53.242;6.386;2022-11-14T08:32:36;6.00;99.90
51579;DHT22;47998;53.242;6.386;2022-11-14T08:35:02;6.00;99.90
51579;DHT22;47998;53.242;6.386;2022-11-14T08:37:27;6.00;99.90
51579;DHT22;47998;53.242;6.386;2022-11-14T08:39:53;6.10;99.90
51579;DHT22;47998;53.242;6.386;2022-11-14T08:42:19;6.10;99.90
51579;DHT22;47998;53.242;6.386;2022-11-14T08:44:45;6.20;99.90
51579;DHT22;47998;53.242;6.386;2022-11-14T08:47:10;6.20;99.90
51579;DHT22;47998;53.242;6.386;2022-11-14T08:49:36;6.30;99.90
51579;DHT22;47998;53.242;6.386;2022-11-14T08:52:02;6.30;99.90
51579;DHT22;47998;53.242;6.386;2022-11-14T08:54:28;6.40;99.90
51579;DHT22;47998;53.242;6.386;2022-11-14T08:56:53;6.40;99.90
51579;DHT22;47998;53.242;6.386;2022-11-14T08:59:19;6.40;99.90
51579;DHT22;47998;53.242;6.386;2022-11-14T09:01:45;6.50;99.90
51579;DHT22;47998;53.242;6.386;2022-11-14T09:04:10;6.50;99.90
51579;DHT22;47998;53.242;6.386;2022-11-14T09:06:36;6.60;99.90
51579;DHT22;47998;53.242;6.386;2022-11-14T09:09:02;6.60;99.90
51579;DHT22;47998;53.242;6.386;2022-11-14T09:11:28;6.70;99.90
51579;DHT22;47998;53.242;6.386;2022-11-14T09:13:53;6.80;99.90
51579;DHT22;47998;53.242;6.386;2022-11-14T09:16:19;6.90;99.90
51579;DHT22;47998;53.242;6.386;2022-11-14T09:18:45;6.90;99.90
51579;DHT22;47998;53.242;6.386;2022-11-14T09:21:10;7.00;99.90
51579;DHT22;47998;53.242;6.386;2022-11-14T09:23:36;7.20;99.90
51579;DHT22;47998;53.242;6.386;2022-11-14T09:26:04;7.30;99.90
51579;DHT22;47998;53.242;6.386;2022-11-14T09:28:30;7.20;99.90
51579;DHT22;47998;53.242;6.386;2022-11-14T09:31:08;7.30;99.90
51579;DHT22;47998;53.242;6.386;2022-11-14T09:33:34;7.30;99.90
51579;DHT22;47998;53.242;6.386;2022-11-14T09:36:03;7.30;99.90
51579;DHT22;47998;53.242;6.386;2022-11-14T09:38:29;7.20;99.90
51579;DHT22;47998;53.242;6.386;2022-11-14T09:46:41;6.90;99.90
51579;DHT22;47998;53.242;6.386;2022-11-14T09:49:34;6.90;99.90
51579;DHT22;47998;53.242;6.386;2022-11-14T09:52:14;7.10;99.90
51579;DHT22;47998;53.242;6.386;2022-11-14T09:54:59;7.20;99.90
51579;DHT22;47998;53.242;6.386;2022-11-14T09:57:26;7.40;99.90
51579;DHT22;47998;53.242;6.386;2022-11-14T09:59:52;7.50;99.90
51579;DHT22;47998;53.242;6.386;2022-11-14T10:10:41;7.40;99.90
51579;DHT22;47998;53.242;6.386;2022-11-14T10:21:53;7.50;99.90
51579;DHT22;47998;53.242;6.386;2022-11-14T10:27:18;7.50;99.90
51579;DHT22;47998;53.242;6.386;2022-11-14T10:30:17;7.50;99.90
51579;DHT22;47998;53.242;6.386;2022-11-14T10:32:53;7.60;99.90
51579;DHT22;47998;53.242;6.386;2022-11-14T10:38:32;8.00;99.90
51579;DHT22;47998;53.242;6.386;2022-11-14T10:41:04;8.00;99.90
51579;DHT22;47998;53.242;6.386;2022-11-14T10:43:41;7.90;99.90
51579;DHT22;47998;53.242;6.386;2022-11-14T10:48:47;7.90;99.90
51579;DHT22;47998;53.242;6.386;2022-11-14T10:56:47;8.20;99.90
51579;DHT22;47998;53.242;6.386;2022-11-14T10:59:13;8.20;99.90
51579;DHT22;47998;53.242;6.386;2022-11-14T11:01:41;8.20;99.90
51579;DHT22;47998;53.242;6.386;2022-11-14T11:04:31;8.30;99.90
51579;DHT22;47998;53.242;6.386;2022-11-14T11:12:37;8.40;99.90
51579;DHT22;47998;53.242;6.386;2022-11-14T11:15:20;8.50;99.90
51579;DHT22;47998;53.242;6.386;2022-11-14T11:18:14;8.40;1.00
51579;DHT22;47998;53.242;6.386;2022-11-14T11:23:28;8.20;99.90
51579;DHT22;47998;53.242;6.386;2022-11-14T11:26:06;8.20;1.00
51579;DHT22;47998;53.242;6.386;2022-11-14T11:28:34;8.10;99.90
51579;DHT22;47998;53.242;6.386;2022-11-14T11:31:03;8.10;1.00
51579;DHT22;47998;53.242;6.386;2022-11-14T11:33:34;8.10;1.00
51579;DHT22;47998;53.242;6.386;2022-11-14T11:36:06;8.00;99.90
51579;DHT22;47998;53.242;6.386;2022-11-14T11:38:35;8.10;1.00
51579;DHT22;47998;53.242;6.386;2022-11-14T11:41:26;8.20;1.00
51579;DHT22;47998;53.242;6.386;2022-11-14T11:43:59;8.30;99.90
51579;DHT22;47998;53.242;6.386;2022-11-14T11:46:56;8.40;1.00
51579;DHT22;47998;53.242;6.386;2022-11-14T11:52:04;8.50;1.00
51579;DHT22;47998;53.242;6.386;2022-11-14T11:58:18;8.90;99.90
51579;DHT22;47998;53.242;6.386;2022-11-14T12:00:36;8.80;99.90
51579;DHT22;47998;53.242;6.386;2022-11-14T12:03:02;8.70;1.00
51579;DHT22;47998;53.242;6.386;2022-11-14T12:10:46;8.70;99.90
51579;DHT22;47998;53.242;6.386;2022-11-14T12:13:40;8.80;99.90
51579;DHT22;47998;53.242;6.386;2022-11-14T12:30:09;10.50;1.00
51579;DHT22;47998;53.242;6.386;2022-11-14T12:32:46;10.90;99.90
51579;DHT22;47998;53.242;6.386;2022-11-14T12:35:34;11.00;99.90
51579;DHT22;47998;53.242;6.386;2022-11-14T12:38:02;11.10;1.00
51579;DHT22;47998;53.242;6.386;2022-11-14T12:40:37;11.30;99.90
51579;DHT22;47998;53.242;6.386;2022-11-14T12:43:13;11.30;99.90
51579;DHT22;47998;53.242;6.386;2022-11-14T12:48:21;11.70;90.30
51579;DHT22;47998;53.242;6.386;2022-11-14T12:50:47;11.70;99.90
51579;DHT22;47998;53.242;6.386;2022-11-14T13:01:40;11.50;1.00
51579;DHT22;47998;53.242;6.386;2022-11-14T13:06:58;11.30;1.00
51579;DHT22;47998;53.242;6.386;2022-11-14T13:18:20;11.40;99.90
51579;DHT22;47998;53.242;6.386;2022-11-14T13:21:29;11.50;99.90
51579;DHT22;47998;53.242;6.386;2022-11-14T13:24:14;11.70;99.90
51579;DHT22;47998;53.242;6.386;2022-11-14T13:26:48;11.60;99.90
51579;DHT22;47998;53.242;6.386;2022-11-14T13:32:10;11.50;99.90
51579;DHT22;47998;53.242;6.386;2022-11-14T13:40:17;11.10;86.70
51579;DHT22;47998;53.242;6.386;2022-11-14T13:51:00;10.90;1.00
51579;DHT22;47998;53.242;6.386;2022-11-14T13:53:29;10.80;99.90
51579;DHT22;47998;53.242;6.386;2022-11-14T13:56:04;10.70;99.90
51579;DHT22;47998;53.242;6.386;2022-11-14T13:59:06;10.60;22.60
51579;DHT22;47998;53.242;6.386;2022-11-14T14:13:06;10.20;99.90
51579;DHT22;47998;53.242;6.386;2022-11-14T14:15:57;10.00;1.00
51579;DHT22;47998;53.242;6.386;2022-11-14T14:24:15;9.90;99.90
51579;DHT22;47998;53.242;6.386;2022-11-14T14:27:02;9.80;99.90
51579;DHT22;47998;53.242;6.386;2022-11-14T14:32:18;9.60;1.00
51579;DHT22;47998;53.242;6.386;2022-11-14T14:34:44;9.50;1.00
51579;DHT22;47998;53.242;6.386;2022-11-14T14:37:25;9.40;1.00
51579;DHT22;47998;53.242;6.386;2022-11-14T14:40:05;9.30;1.00
51579;DHT22;47998;53.242;6.386;2022-11-14T14:42:38;9.30;1.00
51579;DHT22;47998;53.242;6.386;2022-11-14T14:45:14;9.30;99.90
51579;DHT22;47998;53.242;6.386;2022-11-14T14:47:42;9.30;99.90
51579;DHT22;47998;53.242;6.386;2022-11-14T14:50:23;9.20;99.90
51579;DHT22;47998;53.242;6.386;2022-11-14T14:52:58;9.20;99.90
51579;DHT22;47998;53.242;6.386;2022-11-14T14:55:27;9.10;99.90
51579;DHT22;47998;53.242;6.386;2022-11-14T14:57:53;9.00;99.90
51579;DHT22;47998;53.242;6.386;2022-11-14T15:00:21;8.90;99.90
51579;DHT22;47998;53.242;6.386;2022-11-14T15:02:54;8.70;99.90
51579;DHT22;47998;53.242;6.386;2022-11-14T15:05:30;8.50;99.90
51579;DHT22;47998;53.242;6.386;2022-11-14T15:07:58;8.30;1.00
51579;DHT22;47998;53.242;6.386;2022-11-14T15:10:29;8.10;1.00
51579;DHT22;47998;53.242;6.386;2022-11-14T15:12:56;7.90;1.00
51579;DHT22;47998;53.242;6.386;2022-11-14T15:15:24;7.70;17.20
51579;DHT22;47998;53.242;6.386;2022-11-14T15:17:52;7.60;54.40
51579;DHT22;47998;53.242;6.386;2022-11-14T15:20:26;7.50;91.60
51579;DHT22;47998;53.242;6.386;2022-11-14T15:23:18;7.30;99.90
51579;DHT22;47998;53.242;6.386;2022-11-14T15:25:44;7.10;99.90
51579;DHT22;47998;53.242;6.386;2022-11-14T15:28:20;7.00;99.90
51579;DHT22;47998;53.242;6.386;2022-11-14T15:31:00;6.90;99.90
51579;DHT22;47998;53.242;6.386;2022-11-14T15:33:34;6.70;1.00
51579;DHT22;47998;53.242;6.386;2022-11-14T15:36:12;6.60;1.00
51579;DHT22;47998;53.242;6.386;2022-11-14T15:38:38;6.50;1.00
51579;DHT22;47998;53.242;6.386;2022-11-14T15:41:27;6.50;1.00
51579;DHT22;47998;53.242;6.386;2022-11-14T15:43:55;6.30;32.70
51579;DHT22;47998;53.242;6.386;2022-11-14T15:49:22;6.30;99.90
51579;DHT22;47998;53.242;6.386;2022-11-14T15:51:56;6.40;99.90
51579;DHT22;47998;53.242;6.386;2022-11-14T15:54:33;6.50;99.90
51579;DHT22;47998;53.242;6.386;2022-11-14T15:57:04;6.50;99.90
51579;DHT22;47998;53.242;6.386;2022-11-14T15:59:30;6.60;99.90
51579;DHT22;47998;53.242;6.386;2022-11-14T16:02:09;6.70;99.90
51579;DHT22;47998;53.242;6.386;2022-11-14T16:04:35;6.80;99.90
51579;DHT22;47998;53.242;6.386;2022-11-14T16:07:02;6.80;99.90
51579;DHT22;47998;53.242;6.386;2022-11-14T16:09:28;6.90;99.90
51579;DHT22;47998;53.242;6.386;2022-11-14T16:11:54;7.00;99.90
51579;DHT22;47998;53.242;6.386;2022-11-14T16:14:19;7.00;99.90
51579;DHT22;47998;53.242;6.386;2022-11-14T16:16:45;7.10;99.90
51579;DHT22;47998;53.242;6.386;2022-11-14T16:19:13;7.30;99.90
51579;DHT22;47998;53.242;6.386;2022-11-14T16:21:40;7.30;99.90
51579;DHT22;47998;53.242;6.386;2022-11-14T16:24:12;7.40;99.90
51579;DHT22;47998;53.242;6.386;2022-11-14T16:26:39;7.50;99.90
51579;DHT22;47998;53.242;6.386;2022-11-14T16:29:05;7.50;99.90
51579;DHT22;47998;53.242;6.386;2022-11-14T16:31:32;7.50;99.90
51579;DHT22;47998;53.242;6.386;2022-11-14T16:33:58;7.50;99.90
51579;DHT22;47998;53.242;6.386;2022-11-14T16:36:24;7.50;99.90
51579;DHT22;47998;53.242;6.386;2022-11-14T16:38:49;7.50;99.90
51579;DHT22;47998;53.242;6.386;2022-11-14T16:41:16;7.60;99.90
51579;DHT22;47998;53.242;6.386;2022-11-14T16:43:42;7.60;99.90
51579;DHT22;47998;53.242;6.386;2022-11-14T16:46:08;7.50;99.90
51579;DHT22;47998;53.242;6.386;2022-11-14T16:48:35;7.50;99.90
51579;DHT22;47998;53.242;6.386;2022-11-14T16:51:02;7.50;99.90
51579;DHT22;47998;53.242;6.386;2022-11-14T16:53:28;7.50;99.90
51579;DHT22;47998;53.242;6.386;2022-11-14T16:55:55;7.50;99.90
51579;DHT22;47998;53.242;6.386;2022-11-14T16:58:21;7.60;99.90
51579;DHT22;47998;53.242;6.386;2022-11-14T17:00:47;7.50;99.90
51579;DHT22;47998;53.242;6.386;2022-11-14T17:03:13;7.60;99.90
51579;DHT22;47998;53.242;6.386;2022-11-14T17:05:47;7.50;99.90
51579;DHT22;47998;53.242;6.386;2022-11-14T17:08:14;7.50;99.90
51579;DHT22;47998;53.242;6.386;2022-11-14T17:10:40;7.50;99.90
51579;DHT22;47998;53.242;6.386;2022-11-14T17:13:07;7.50;99.90
51579;DHT22;47998;53.242;6.386;2022-11-14T17:15:32;7.40;99.90
51579;DHT22;47998;53.242;6.386;2022-11-14T17:17:58;7.50;99.90
51579;DHT22;47998;53.242;6.386;2022-11-14T17:20:24;7.50;99.90
51579;DHT22;47998;53.242;6.386;2022-11-14T17:22:49;7.40;99.90
51579;DHT22;47998;53.242;6.386;2022-11-14T17:25:15;7.50;99.90
51579;DHT22;47998;53.242;6.386;2022-11-14T17:27:41;7.50;99.90
51579;DHT22;47998;53.242;6.386;2022-11-14T17:30:11;7.50;99.90
51579;DHT22;47998;53.242;6.386;2022-11-14T17:32:37;7.50;99.90
51579;DHT22;47998;53.242;6.386;2022-11-14T17:35:02;7.50;99.90
51579;DHT22;47998;53.242;6.386;2022-11-14T17:37:29;7.60;99.90
51579;DHT22;47998;53.242;6.386;2022-11-14T17:39:54;7.60;99.90
51579;DHT22;47998;53.242;6.386;2022-11-14T17:42:20;7.60;99.90
51579;DHT22;47998;53.242;6.386;2022-11-14T17:44:46;7.60;99.90
51579;DHT22;47998;53.242;6.386;2022-11-14T17:47:11;7.60;99.90
51579;DHT22;47998;53.242;6.386;2022-11-14T17:49:37;7.60;99.90
51579;DHT22;47998;53.242;6.386;2022-11-14T17:52:03;7.70;99.90
51579;DHT22;47998;53.242;6.386;2022-11-14T17:54:28;7.60;99.90
51579;DHT22;47998;53.242;6.386;2022-11-14T17:56:54;7.60;99.90
51579;DHT22;47998;53.242;6.386;2022-11-14T17:59:20;7.50;99.90
51579;DHT22;47998;53.242;6.386;2022-11-14T18:01:46;7.50;99.90
51579;DHT22;47998;53.242;6.386;2022-11-14T18:04:11;7.60;99.90
51579;DHT22;47998;53.242;6.386;2022-11-14T18:06:37;7.40;99.90
51579;DHT22;47998;53.242;6.386;2022-11-14T18:09:03;7.30;99.90
51579;DHT22;47998;53.242;6.386;2022-11-14T18:11:31;7.10;99.90